createdAt,value
2016-05-25T00:00:40.906Z,1010.85
2016-05-25T00:01:41.097Z,1010.82
2016-05-25T00:02:40.896Z,1010.77
2016-05-25T00:03:40.899Z,1010.79
2016-05-25T00:04:41.089Z,1010.78
2016-05-25T00:05:41.092Z,1010.81
2016-05-25T00:06:41.095Z,1010.79
2016-05-25T00:07:41.082Z,1010.83
2016-05-25T00:08:41.085Z,1010.77
2016-05-25T00:09:40.869Z,1010.82
2016-05-25T00:10:41.074Z,1010.79
2016-05-25T00:11:41.061Z,1010.79
2016-05-25T00:12:41.048Z,1010.77
2016-05-25T00:13:41.051Z,1010.79
2016-05-25T00:14:41.054Z,1010.77
2016-05-25T00:15:40.837Z,1010.76
2016-05-25T00:16:41.044Z,1010.72
2016-05-25T00:17:41.031Z,1010.73
2016-05-25T00:18:41.034Z,1010.71
2016-05-25T00:19:41.036Z,1010.71
2016-05-25T00:20:40.835Z,1010.68
2016-05-25T00:21:40.823Z,1010.69
2016-05-25T00:22:41.012Z,1010.68
2016-05-25T00:23:41.015Z,1010.72
2016-05-25T00:24:40.815Z,1010.71
2016-05-25T00:25:41.006Z,1010.69
2016-05-25T00:26:40.789Z,1010.68
2016-05-25T00:27:40.792Z,1010.68
2016-05-25T00:28:40.779Z,1010.66
2016-05-25T00:29:40.782Z,1010.7
2016-05-25T00:30:40.987Z,1010.64
2016-05-25T00:31:40.975Z,1010.7
2016-05-25T00:32:40.774Z,1010.67
2016-05-25T00:33:40.964Z,1010.66
2016-05-25T00:34:40.967Z,1010.63
2016-05-25T00:35:40.766Z,1010.65
2016-05-25T00:36:40.957Z,1010.68
2016-05-25T00:37:40.755Z,1010.64
2016-05-25T00:38:40.947Z,1010.65
2016-05-25T00:39:40.950Z,1010.67
2016-05-25T00:40:40.749Z,1010.65
2016-05-25T00:41:40.736Z,1010.65
2016-05-25T00:42:40.926Z,1010.69
2016-05-25T00:43:40.929Z,1010.67
2016-05-25T00:44:40.728Z,1010.69
2016-05-25T00:45:40.918Z,1010.69
2016-05-25T00:46:40.718Z,1010.69
2016-05-25T00:47:40.705Z,1010.71
2016-05-25T00:48:40.708Z,1010.75
2016-05-25T00:49:40.898Z,1010.72
2016-05-25T00:50:40.901Z,1010.76
2016-05-25T00:51:40.903Z,1010.67
2016-05-25T00:52:40.890Z,1010.7
2016-05-25T00:53:40.878Z,1010.7
2016-05-25T00:54:40.880Z,1010.69
2016-05-25T00:55:40.680Z,1010.75
2016-05-25T00:56:40.667Z,1010.74
2016-05-25T00:57:40.872Z,1010.74
2016-05-25T00:58:40.859Z,1010.77
2016-05-25T00:59:40.862Z,1010.76
2016-05-25T01:00:40.647Z,1010.77
2016-05-25T01:01:40.649Z,1010.75
2016-05-25T01:02:40.855Z,1010.73
2016-05-25T01:03:40.639Z,1010.75
2016-05-25T01:04:40.844Z,1010.72
2016-05-25T01:05:40.831Z,1010.74
2016-05-25T01:06:40.833Z,1010.76
2016-05-25T01:07:40.618Z,1010.76
2016-05-25T01:08:40.621Z,1010.76
2016-05-25T01:09:40.811Z,1010.74
2016-05-25T01:10:40.611Z,1010.75
2016-05-25T01:11:40.801Z,1010.73
2016-05-25T01:12:40.804Z,1010.75
2016-05-25T01:13:40.806Z,1010.74
2016-05-25T01:14:40.590Z,1010.76
2016-05-25T01:15:40.593Z,1010.78
2016-05-25T01:16:40.782Z,1010.74
2016-05-25T01:17:40.582Z,1010.77
2016-05-25T01:18:40.585Z,1010.76
2016-05-25T01:19:40.776Z,1010.74
2016-05-25T01:20:40.762Z,1010.78
2016-05-25T01:21:40.562Z,1010.78
2016-05-25T01:22:40.768Z,1010.78
2016-05-25T01:23:40.567Z,1010.8
2016-05-25T01:24:40.757Z,1010.77
2016-05-25T01:25:40.557Z,1010.78
2016-05-25T01:26:40.544Z,1010.79
2016-05-25T01:27:40.735Z,1010.74
2016-05-25T01:28:40.534Z,1010.72
2016-05-25T01:29:40.521Z,1010.74
2016-05-25T01:30:40.727Z,1010.75
2016-05-25T01:31:40.730Z,1010.73
2016-05-25T01:32:40.717Z,1010.72
2016-05-25T01:33:40.516Z,1010.7
2016-05-25T01:34:40.706Z,1010.72
2016-05-25T01:35:40.709Z,1010.7
2016-05-25T01:36:40.696Z,1010.69
2016-05-25T01:37:40.496Z,1010.7
2016-05-25T01:38:40.685Z,1010.67
2016-05-25T01:39:40.688Z,1010.68
2016-05-25T01:40:40.473Z,1010.67
2016-05-25T01:41:40.678Z,1010.71
2016-05-25T01:42:40.681Z,1010.69
2016-05-25T01:43:40.668Z,1010.69
2016-05-25T01:44:40.468Z,1010.72
2016-05-25T01:45:40.471Z,1010.7
2016-05-25T01:46:40.660Z,1010.67
2016-05-25T01:47:40.648Z,1010.69
2016-05-25T01:48:40.651Z,1010.62
2016-05-25T01:49:40.435Z,1010.66
2016-05-25T01:50:40.640Z,1010.65
2016-05-25T01:51:40.642Z,1010.58
2016-05-25T01:52:40.427Z,1010.62
2016-05-25T01:53:40.429Z,1010.63
2016-05-25T01:54:40.620Z,1010.6
2016-05-25T01:55:40.419Z,1010.59
2016-05-25T01:56:40.609Z,1010.6
2016-05-25T01:57:40.612Z,1010.59
2016-05-25T01:58:40.598Z,1010.59
2016-05-25T01:59:40.601Z,1010.54
2016-05-25T02:00:40.401Z,1010.55
2016-05-25T02:01:40.389Z,1010.51
2016-05-25T02:02:40.595Z,1010.53
2016-05-25T02:03:40.378Z,1010.52
2016-05-25T02:04:40.584Z,1010.51
2016-05-25T02:05:40.571Z,1010.5
2016-05-25T02:06:40.370Z,1010.51
2016-05-25T02:07:40.561Z,1010.51
2016-05-25T02:08:40.360Z,1010.51
2016-05-25T02:09:40.347Z,1010.49
2016-05-25T02:10:40.553Z,1010.51
2016-05-25T02:11:40.556Z,1010.48
2016-05-25T02:12:40.544Z,1010.51
2016-05-25T02:13:40.530Z,1010.53
2016-05-25T02:14:40.533Z,1010.52
2016-05-25T02:15:40.332Z,1010.53
2016-05-25T02:16:40.522Z,1010.5
2016-05-25T02:17:40.321Z,1010.5
2016-05-25T02:18:40.527Z,1010.48
2016-05-25T02:19:40.312Z,1010.52
2016-05-25T02:20:40.518Z,1010.5
2016-05-25T02:21:40.301Z,1010.48
2016-05-25T02:22:40.492Z,1010.48
2016-05-25T02:23:40.291Z,1010.44
2016-05-25T02:24:40.482Z,1010.43
2016-05-25T02:25:40.484Z,1010.42
2016-05-25T02:26:40.487Z,1010.48
2016-05-25T02:27:40.473Z,1010.44
2016-05-25T02:28:40.476Z,1010.46
2016-05-25T02:29:40.463Z,1010.47
2016-05-25T02:30:40.466Z,1010.44
2016-05-25T02:31:40.750Z,1010.47
2016-05-25T02:32:40.456Z,1010.44
2016-05-25T02:33:40.256Z,1010.47
2016-05-25T02:34:40.446Z,1010.49
2016-05-25T02:35:40.433Z,1010.49
2016-05-25T02:36:40.436Z,1010.42
2016-05-25T02:37:40.438Z,1010.44
2016-05-25T02:38:40.425Z,1010.43
2016-05-25T02:39:40.224Z,1010.43
2016-05-25T02:40:40.416Z,1010.44
2016-05-25T02:41:40.418Z,1010.39
2016-05-25T02:42:40.405Z,1010.39
2016-05-25T02:43:40.205Z,1010.42
2016-05-25T02:44:40.191Z,1010.4
2016-05-25T02:45:40.397Z,1010.41
2016-05-25T02:46:40.400Z,1010.42
2016-05-25T02:47:40.184Z,1010.45
2016-05-25T02:48:40.390Z,1010.46
2016-05-25T02:49:40.376Z,1010.44
2016-05-25T02:50:40.160Z,1010.42
2016-05-25T02:51:40.164Z,1010.42
2016-05-25T02:52:40.368Z,1010.43
2016-05-25T02:53:40.357Z,1010.41
2016-05-25T02:54:40.359Z,1010.39
2016-05-25T02:55:40.346Z,1010.38
2016-05-25T02:56:40.349Z,1010.42
2016-05-25T02:57:40.336Z,1010.35
2016-05-25T02:58:40.135Z,1010.32
2016-05-25T02:59:40.325Z,1010.35
2016-05-25T03:00:40.125Z,1010.32
2016-05-25T03:01:40.331Z,1010.35
2016-05-25T03:02:40.131Z,1010.32
2016-05-25T03:03:40.117Z,1010.33
2016-05-25T03:04:40.105Z,1010.32
2016-05-25T03:05:40.341Z,1010.35
2016-05-25T03:06:40.095Z,1010.37
2016-05-25T03:07:40.300Z,1010.3
2016-05-25T03:08:40.084Z,1010.35
2016-05-25T03:09:40.289Z,1010.35
2016-05-25T03:10:40.292Z,1010.34
2016-05-25T03:11:40.279Z,1010.38
2016-05-25T03:12:40.283Z,1010.35
2016-05-25T03:13:40.269Z,1010.38
2016-05-25T03:14:40.053Z,1010.39
2016-05-25T03:15:40.259Z,1010.4
2016-05-25T03:16:40.262Z,1010.37
2016-05-25T03:17:40.249Z,1010.37
2016-05-25T03:18:40.236Z,1010.34
2016-05-25T03:19:40.238Z,1010.35
2016-05-25T03:20:40.038Z,1010.34
2016-05-25T03:21:40.229Z,1010.3
2016-05-25T03:22:40.029Z,1010.3
2016-05-25T03:23:40.015Z,1010.32
2016-05-25T03:24:40.018Z,1010.31
2016-05-25T03:25:40.005Z,1010.3
2016-05-25T03:26:40.211Z,1010.34
2016-05-25T03:27:40.213Z,1010.29
2016-05-25T03:28:39.998Z,1010.3
2016-05-25T03:29:40.203Z,1010.28
2016-05-25T03:30:40.190Z,1010.27
2016-05-25T03:31:40.193Z,1010.25
2016-05-25T03:32:40.180Z,1010.23
2016-05-25T03:33:40.183Z,1010.26
2016-05-25T03:34:39.967Z,1010.23
2016-05-25T03:35:39.969Z,1010.23
2016-05-25T03:36:40.159Z,1010.32
2016-05-25T03:37:40.162Z,1010.29
2016-05-25T03:38:39.961Z,1010.3
2016-05-25T03:39:40.152Z,1010.33
2016-05-25T03:40:39.936Z,1010.33
2016-05-25T03:41:40.141Z,1010.32
2016-05-25T03:42:40.144Z,1010.33
2016-05-25T03:43:39.944Z,1010.34
2016-05-25T03:44:39.915Z,1010.35
2016-05-25T03:45:39.918Z,1010.35
2016-05-25T03:46:39.921Z,1010.36
2016-05-25T03:47:40.111Z,1010.39
2016-05-25T03:48:40.114Z,1010.38
2016-05-25T03:49:40.101Z,1010.42
2016-05-25T03:50:39.900Z,1010.43
2016-05-25T03:51:39.887Z,1010.42
2016-05-25T03:52:39.890Z,1010.42
2016-05-25T03:53:40.080Z,1010.37
2016-05-25T03:54:39.879Z,1010.35
2016-05-25T03:55:40.086Z,1010.35
2016-05-25T03:56:40.073Z,1010.35
2016-05-25T03:57:40.076Z,1010.34
2016-05-25T03:58:40.063Z,1010.34
2016-05-25T03:59:40.050Z,1010.33
2016-05-25T04:00:40.052Z,1010.35
2016-05-25T04:01:40.054Z,1010.35
2016-05-25T04:02:39.840Z,1010.31
2016-05-25T04:03:39.842Z,1010.27
2016-05-25T04:04:39.829Z,1010.25
2016-05-25T04:05:40.035Z,1010.27
2016-05-25T04:06:39.818Z,1010.26
2016-05-25T04:07:40.024Z,1010.25
2016-05-25T04:08:40.012Z,1010.24
2016-05-25T04:09:40.014Z,1010.22
2016-05-25T04:10:39.798Z,1010.23
2016-05-25T04:11:39.800Z,1010.22
2016-05-25T04:12:39.991Z,1010.21
2016-05-25T04:13:39.791Z,1010.25
2016-05-25T04:14:39.981Z,1010.24
2016-05-25T04:15:39.983Z,1010.26
2016-05-25T04:16:40.002Z,1010.25
2016-05-25T04:17:39.972Z,1010.27
2016-05-25T04:18:39.975Z,1010.22
2016-05-25T04:19:39.986Z,1010.26
2016-05-25T04:20:40.013Z,1010.24
2016-05-25T04:21:40.039Z,1010.21
2016-05-25T04:22:40.050Z,1010.23
2016-05-25T04:23:39.857Z,1010.23
2016-05-25T04:24:39.868Z,1010.19
2016-05-25T04:25:39.865Z,1010.16
2016-05-25T04:26:39.876Z,1010.19
2016-05-25T04:27:39.871Z,1010.17
2016-05-25T04:28:39.867Z,1010.19
2016-05-25T04:29:39.873Z,1010.16
2016-05-25T04:30:39.879Z,1010.15
2016-05-25T04:31:39.869Z,1010.17
2016-05-25T04:32:40.077Z,1010.18
2016-05-25T04:33:40.067Z,1010.17
2016-05-25T04:34:40.071Z,1010.17
2016-05-25T04:35:40.059Z,1010.18
2016-05-25T04:36:40.064Z,1010.17
2016-05-25T04:37:39.864Z,1010.17
2016-05-25T04:38:40.056Z,1010.14
2016-05-25T04:39:40.044Z,1010.12
2016-05-25T04:40:40.046Z,1010.1
2016-05-25T04:41:39.846Z,1010.12
2016-05-25T04:42:40.037Z,1010.1
2016-05-25T04:43:40.039Z,1010.14
2016-05-25T04:44:40.027Z,1010.14
2016-05-25T04:45:40.029Z,1010.13
2016-05-25T04:46:40.017Z,1010.13
2016-05-25T04:47:39.817Z,1010.09
2016-05-25T04:48:40.006Z,1010.08
2016-05-25T04:49:40.009Z,1010.1
2016-05-25T04:50:39.793Z,1010.08
2016-05-25T04:51:39.998Z,1010.06
2016-05-25T04:52:39.986Z,1010.05
2016-05-25T04:53:39.785Z,1010.07
2016-05-25T04:54:39.976Z,1010.11
2016-05-25T04:55:39.978Z,1010.05
2016-05-25T04:56:39.965Z,1010.06
2016-05-25T04:57:39.968Z,1010.1
2016-05-25T04:58:39.955Z,1010.09
2016-05-25T04:59:39.958Z,1010.13
2016-05-25T05:00:39.961Z,1010.09
2016-05-25T05:01:39.838Z,1010.15
2016-05-25T05:02:39.732Z,1010.13
2016-05-25T05:03:39.735Z,1010.18
2016-05-25T05:04:39.721Z,1010.15
2016-05-25T05:05:39.724Z,1010.13
2016-05-25T05:06:39.929Z,1010.14
2016-05-25T05:07:39.713Z,1010.09
2016-05-25T05:08:39.919Z,1010.12
2016-05-25T05:09:39.921Z,1010.16
2016-05-25T05:10:39.909Z,1010.18
2016-05-25T05:11:39.693Z,1010.14
2016-05-25T05:12:39.899Z,1010.13
2016-05-25T05:13:39.886Z,1010.12
2016-05-25T05:14:39.889Z,1010.13
2016-05-25T05:15:39.673Z,1010.12
2016-05-25T05:16:40.066Z,1010.12
2016-05-25T05:17:39.662Z,1010.14
2016-05-25T05:18:39.868Z,1010.13
2016-05-25T05:19:39.855Z,1010.09
2016-05-25T05:20:39.859Z,1010.12
2016-05-25T05:21:39.861Z,1010.12
2016-05-25T05:22:39.645Z,1010.13
2016-05-25T05:23:39.850Z,1010.15
2016-05-25T05:24:39.634Z,1010.15
2016-05-25T05:25:39.825Z,1010.23
2016-05-25T05:26:39.828Z,1010.19
2016-05-25T05:27:39.611Z,1010.18
2016-05-25T05:28:39.614Z,1010.2
2016-05-25T05:29:39.600Z,1010.22
2016-05-25T05:30:39.603Z,1010.21
2016-05-25T05:31:39.669Z,1010.22
2016-05-25T05:32:39.797Z,1010.24
2016-05-25T05:33:39.596Z,1010.26
2016-05-25T05:34:39.786Z,1010.24
2016-05-25T05:35:39.789Z,1010.27
2016-05-25T05:36:39.777Z,1010.27
2016-05-25T05:37:39.779Z,1010.29
2016-05-25T05:38:39.766Z,1010.26
2016-05-25T05:39:39.768Z,1010.26
2016-05-25T05:40:39.755Z,1010.34
2016-05-25T05:41:39.555Z,1010.29
2016-05-25T05:42:39.745Z,1010.36
2016-05-25T05:43:39.748Z,1010.37
2016-05-25T05:44:39.734Z,1010.33
2016-05-25T05:45:39.535Z,1010.36
2016-05-25T05:46:41.975Z,1010.37
2016-05-25T05:47:39.524Z,1010.35
2016-05-25T05:48:39.512Z,1010.38
2016-05-25T05:49:39.717Z,1010.34
2016-05-25T05:50:39.704Z,1010.31
2016-05-25T05:51:39.707Z,1010.37
2016-05-25T05:52:39.694Z,1010.38
2016-05-25T05:53:39.697Z,1010.41
2016-05-25T05:54:39.683Z,1010.4
2016-05-25T05:55:39.484Z,1010.41
2016-05-25T05:56:41.377Z,1010.44
2016-05-25T05:57:39.676Z,1010.43
2016-05-25T05:58:39.664Z,1010.45
2016-05-25T05:59:39.666Z,1010.45
2016-05-25T06:00:39.653Z,1010.51
2016-05-25T06:01:39.655Z,1010.49
2016-05-25T06:02:39.658Z,1010.47
2016-05-25T06:03:39.442Z,1010.47
2016-05-25T06:04:39.429Z,1010.53
2016-05-25T06:05:39.635Z,1010.53
2016-05-25T06:06:40.904Z,1010.6
2016-05-25T06:07:39.624Z,1010.58
2016-05-25T06:08:39.628Z,1010.59
2016-05-25T06:09:39.615Z,1010.55
2016-05-25T06:10:39.618Z,1010.57
2016-05-25T06:11:39.402Z,1010.57
2016-05-25T06:12:39.607Z,1010.58
2016-05-25T06:13:39.391Z,1010.52
2016-05-25T06:14:39.393Z,1010.53
2016-05-25T06:15:39.584Z,1010.54
2016-05-25T06:16:39.587Z,1010.54
2016-05-25T06:17:39.573Z,1010.51
2016-05-25T06:18:39.577Z,1010.51
2016-05-25T06:19:39.360Z,1010.49
2016-05-25T06:20:39.362Z,1010.48
2016-05-25T06:21:39.570Z,1010.51
2016-05-25T06:22:39.353Z,1010.57
2016-05-25T06:23:39.340Z,1010.54
2016-05-25T06:24:39.546Z,1010.54
2016-05-25T06:25:39.533Z,1010.52
2016-05-25T06:26:39.536Z,1010.54
2016-05-25T06:27:39.522Z,1010.56
2016-05-25T06:28:39.322Z,1010.57
2016-05-25T06:29:39.308Z,1010.58
2016-05-25T06:30:39.514Z,1010.58
2016-05-25T06:31:39.299Z,1010.61
2016-05-25T06:32:39.505Z,1010.62
2016-05-25T06:33:42.523Z,1010.65
2016-05-25T06:34:39.495Z,1010.63
2016-05-25T06:35:39.294Z,1010.65
2016-05-25T06:36:39.281Z,1010.63
2016-05-25T06:37:39.284Z,1010.59
2016-05-25T06:38:39.271Z,1010.66
2016-05-25T06:39:39.477Z,1010.62
2016-05-25T06:40:39.463Z,1010.65
2016-05-25T06:41:39.467Z,1010.62
2016-05-25T06:42:39.454Z,1010.65
2016-05-25T06:43:39.457Z,1010.67
2016-05-25T06:44:39.443Z,1010.66
2016-05-25T06:45:39.243Z,1010.63
2016-05-25T06:46:39.432Z,1010.68
2016-05-25T06:47:39.232Z,1010.68
2016-05-25T06:48:39.423Z,1010.71
2016-05-25T06:49:39.425Z,1010.69
2016-05-25T06:50:39.413Z,1010.71
2016-05-25T06:51:39.415Z,1010.73
2016-05-25T06:52:39.198Z,1010.74
2016-05-25T06:53:39.406Z,1010.73
2016-05-25T06:54:39.408Z,1010.76
2016-05-25T06:55:39.395Z,1010.77
2016-05-25T06:56:39.382Z,1010.75
2016-05-25T06:57:39.181Z,1010.74
2016-05-25T06:58:39.387Z,1010.73
2016-05-25T06:59:39.374Z,1010.72
2016-05-25T07:00:39.174Z,1010.74
2016-05-25T07:01:39.161Z,1010.73
2016-05-25T07:02:39.351Z,1010.76
2016-05-25T07:03:39.353Z,1010.77
2016-05-25T07:04:39.341Z,1010.76
2016-05-25T07:05:39.344Z,1010.81
2016-05-25T07:06:39.330Z,1010.76
2016-05-25T07:07:39.333Z,1010.8
2016-05-25T07:08:39.133Z,1010.78
2016-05-25T07:09:39.323Z,1010.75
2016-05-25T07:10:39.326Z,1010.76
2016-05-25T07:11:39.313Z,1010.8
2016-05-25T07:12:39.096Z,1010.75
2016-05-25T07:13:39.302Z,1010.79
2016-05-25T07:14:39.305Z,1010.78
2016-05-25T07:15:39.089Z,1010.79
2016-05-25T07:16:39.342Z,1010.77
2016-05-25T07:17:39.079Z,1010.79
2016-05-25T07:18:39.285Z,1010.83
2016-05-25T07:19:39.271Z,1010.79
2016-05-25T07:20:39.274Z,1010.81
2016-05-25T07:21:39.059Z,1010.78
2016-05-25T07:22:39.265Z,1010.79
2016-05-25T07:23:39.048Z,1010.8
2016-05-25T07:24:39.051Z,1010.79
2016-05-25T07:25:39.241Z,1010.75
2016-05-25T07:26:39.244Z,1010.76
2016-05-25T07:27:39.231Z,1010.8
2016-05-25T07:28:39.030Z,1010.79
2016-05-25T07:29:39.017Z,1010.78
2016-05-25T07:30:39.223Z,1010.81
2016-05-25T07:31:39.211Z,1010.82
2016-05-25T07:32:39.213Z,1010.81
2016-05-25T07:33:39.200Z,1010.78
2016-05-25T07:34:39.203Z,1010.8
2016-05-25T07:35:39.205Z,1010.81
2016-05-25T07:36:38.990Z,1010.8
2016-05-25T07:37:38.977Z,1010.78
2016-05-25T07:38:38.980Z,1010.82
2016-05-25T07:39:39.185Z,1010.81
2016-05-25T07:40:38.969Z,1010.77
2016-05-25T07:41:39.159Z,1010.78
2016-05-25T07:42:39.162Z,1010.75
2016-05-25T07:43:39.149Z,1010.72
2016-05-25T07:44:39.152Z,1010.75
2016-05-25T07:45:39.154Z,1010.78
2016-05-25T07:46:39.141Z,1010.73
2016-05-25T07:47:39.144Z,1010.74
2016-05-25T07:48:39.131Z,1010.71
2016-05-25T07:49:38.932Z,1010.78
2016-05-25T07:50:38.918Z,1010.76
2016-05-25T07:51:38.937Z,1010.74
2016-05-25T07:52:39.110Z,1010.76
2016-05-25T07:53:39.113Z,1010.79
2016-05-25T07:54:38.898Z,1010.71
2016-05-25T07:55:38.901Z,1010.77
2016-05-25T07:56:38.887Z,1010.81
2016-05-25T07:57:38.889Z,1010.82
2016-05-25T07:58:40.424Z,1010.85
2016-05-25T07:59:38.879Z,1010.83
2016-05-25T08:00:38.866Z,1010.84
2016-05-25T08:01:38.869Z,1010.83
2016-05-25T08:02:39.075Z,1010.84
2016-05-25T08:03:38.859Z,1010.86
2016-05-25T08:04:38.847Z,1010.9
2016-05-25T08:05:38.849Z,1010.91
2016-05-25T08:06:39.039Z,1010.93
2016-05-25T08:07:39.042Z,1010.93
2016-05-25T08:08:39.028Z,1010.92
2016-05-25T08:09:39.031Z,1010.95
2016-05-25T08:10:39.019Z,1010.9
2016-05-25T08:11:39.022Z,1010.92
2016-05-25T08:12:39.008Z,1010.92
2016-05-25T08:13:38.807Z,1010.92
2016-05-25T08:14:39.013Z,1010.96
2016-05-25T08:15:38.797Z,1010.9
2016-05-25T08:16:38.988Z,1010.91
2016-05-25T08:17:38.991Z,1010.93
2016-05-25T08:18:38.977Z,1010.97
2016-05-25T08:19:38.980Z,1010.97
2016-05-25T08:20:38.983Z,1010.96
2016-05-25T08:21:38.970Z,1010.96
2016-05-25T08:22:38.957Z,1010.94
2016-05-25T08:23:38.757Z,1010.99
2016-05-25T08:24:38.946Z,1010.97
2016-05-25T08:25:38.949Z,1011
2016-05-25T08:26:38.733Z,1010.98
2016-05-25T08:27:38.939Z,1010.98
2016-05-25T08:28:38.926Z,1010.95
2016-05-25T08:29:38.929Z,1010.94
2016-05-25T08:30:38.916Z,1010.91
2016-05-25T08:31:39.465Z,1010.9
2016-05-25T08:32:38.906Z,1010.95
2016-05-25T08:33:38.925Z,1010.97
2016-05-25T08:34:38.708Z,1010.96
2016-05-25T08:35:38.898Z,1010.94
2016-05-25T08:36:38.885Z,1010.94
2016-05-25T08:37:38.889Z,1010.94
2016-05-25T08:38:38.891Z,1010.94
2016-05-25T08:39:38.675Z,1010.97
2016-05-25T08:40:38.661Z,1010.9
2016-05-25T08:41:38.867Z,1010.96
2016-05-25T08:42:38.870Z,1010.95
2016-05-25T08:43:38.857Z,1010.95
2016-05-25T08:44:38.860Z,1010.94
2016-05-25T08:45:38.847Z,1010.96
2016-05-25T08:46:38.849Z,1010.94
2016-05-25T08:47:38.837Z,1010.93
2016-05-25T08:48:38.840Z,1010.96
2016-05-25T08:49:38.826Z,1010.94
2016-05-25T08:50:38.829Z,1010.93
2016-05-25T08:51:38.613Z,1010.95
2016-05-25T08:52:38.616Z,1010.97
2016-05-25T08:53:38.806Z,1010.99
2016-05-25T08:54:38.809Z,1010.96
2016-05-25T08:55:38.796Z,1010.95
2016-05-25T08:56:38.798Z,1010.98
2016-05-25T08:57:38.801Z,1010.99
2016-05-25T08:58:38.585Z,1011
2016-05-25T08:59:38.791Z,1010.98
2016-05-25T09:00:38.778Z,1010.97
2016-05-25T09:01:38.953Z,1010.98
2016-05-25T09:02:38.565Z,1010.99
2016-05-25T09:03:38.755Z,1010.98
2016-05-25T09:04:38.553Z,1010.99
2016-05-25T09:05:38.557Z,1011.02
2016-05-25T09:06:38.747Z,1011.01
2016-05-25T09:07:38.547Z,1010.99
2016-05-25T09:08:38.534Z,1010.99
2016-05-25T09:09:38.739Z,1010.99
2016-05-25T09:10:38.524Z,1010.99
2016-05-25T09:11:38.511Z,1010.99
2016-05-25T09:12:38.717Z,1011
2016-05-25T09:13:38.516Z,1011
2016-05-25T09:14:38.519Z,1011.04
2016-05-25T09:15:38.506Z,1011
2016-05-25T09:16:38.634Z,1011.03
2016-05-25T09:17:38.698Z,1011.02
2016-05-25T09:18:38.483Z,1011.02
2016-05-25T09:19:38.485Z,1011.04
2016-05-25T09:20:38.472Z,1010.99
2016-05-25T09:21:38.679Z,1010.96
2016-05-25T09:22:38.666Z,1010.99
2016-05-25T09:23:38.465Z,1010.96
2016-05-25T09:24:38.655Z,1010.97
2016-05-25T09:25:38.657Z,1010.96
2016-05-25T09:26:38.457Z,1011
2016-05-25T09:27:38.647Z,1010.99
2016-05-25T09:28:38.431Z,1010.98
2016-05-25T09:29:38.434Z,1010.97
2016-05-25T09:30:38.437Z,1010.95
2016-05-25T09:31:38.440Z,1010.97
2016-05-25T09:32:38.629Z,1010.96
2016-05-25T09:33:38.617Z,1010.93
2016-05-25T09:34:38.604Z,1010.95
2016-05-25T09:35:38.606Z,1010.98
2016-05-25T09:36:38.594Z,1010.97
2016-05-25T09:37:38.392Z,1010.99
2016-05-25T09:38:38.584Z,1010.95
2016-05-25T09:39:38.586Z,1010.98
2016-05-25T09:40:38.572Z,1011
2016-05-25T09:41:38.373Z,1010.97
2016-05-25T09:42:38.564Z,1011
2016-05-25T09:43:38.363Z,1010.99
2016-05-25T09:44:38.365Z,1011
2016-05-25T09:45:38.555Z,1011
2016-05-25T09:46:38.355Z,1011.02
2016-05-25T09:47:38.342Z,1011.01
2016-05-25T09:48:38.532Z,1011.02
2016-05-25T09:49:38.332Z,1011.05
2016-05-25T09:50:38.538Z,1011.04
2016-05-25T09:51:38.321Z,1011.01
2016-05-25T09:52:38.527Z,1011
2016-05-25T09:53:38.515Z,1011.04
2016-05-25T09:54:38.517Z,1010.99
2016-05-25T09:55:38.301Z,1011.04
2016-05-25T09:56:38.287Z,1011.06
2016-05-25T09:57:38.291Z,1011.01
2016-05-25T09:58:38.496Z,1011.07
2016-05-25T09:59:38.483Z,1011.02
2016-05-25T10:00:38.283Z,1011.05
2016-05-25T10:01:38.270Z,1011.04
2016-05-25T10:02:38.273Z,1011.05
2016-05-25T10:03:38.462Z,1011.06
2016-05-25T10:04:38.465Z,1011.04
2016-05-25T10:05:38.250Z,1011.07
2016-05-25T10:06:38.252Z,1011.05
2016-05-25T10:07:38.239Z,1011.08
2016-05-25T10:08:38.445Z,1011.1
2016-05-25T10:09:38.433Z,1011.09
2016-05-25T10:10:38.231Z,1011.13
2016-05-25T10:11:38.438Z,1011.1
2016-05-25T10:12:38.425Z,1011.06
2016-05-25T10:13:38.208Z,1011.1
2016-05-25T10:14:38.414Z,1011.07
2016-05-25T10:15:38.199Z,1011.13
2016-05-25T10:16:38.405Z,1011.04
2016-05-25T10:17:38.392Z,1011.05
2016-05-25T10:18:38.191Z,1011.05
2016-05-25T10:19:38.193Z,1011.01
2016-05-25T10:20:38.180Z,1010.97
2016-05-25T10:21:38.183Z,1010.99
2016-05-25T10:22:38.171Z,1010.99
2016-05-25T10:23:38.376Z,1010.95
2016-05-25T10:24:38.364Z,1010.98
2016-05-25T10:25:38.366Z,1010.94
2016-05-25T10:26:38.149Z,1010.95
2016-05-25T10:27:38.153Z,1010.95
2016-05-25T10:28:38.343Z,1010.92
2016-05-25T10:29:38.142Z,1010.92
2016-05-25T10:30:38.129Z,1010.9
2016-05-25T10:31:38.132Z,1010.88
2016-05-25T10:32:38.338Z,1010.89
2016-05-25T10:33:38.325Z,1010.86
2016-05-25T10:34:38.312Z,1010.86
2016-05-25T10:35:38.112Z,1010.86
2016-05-25T10:36:38.098Z,1010.87
2016-05-25T10:37:38.304Z,1010.85
2016-05-25T10:38:38.089Z,1010.84
2016-05-25T10:39:38.294Z,1010.85
2016-05-25T10:40:38.297Z,1010.83
2016-05-25T10:41:38.284Z,1010.83
2016-05-25T10:42:38.084Z,1010.83
2016-05-25T10:43:38.070Z,1010.82
2016-05-25T10:44:38.072Z,1010.82
2016-05-25T10:45:38.263Z,1010.77
2016-05-25T10:46:38.063Z,1010.81
2016-05-25T10:47:38.269Z,1010.77
2016-05-25T10:48:38.256Z,1010.76
2016-05-25T10:49:38.040Z,1010.8
2016-05-25T10:50:38.246Z,1010.82
2016-05-25T10:51:38.030Z,1010.83
2016-05-25T10:52:38.236Z,1010.86
2016-05-25T10:53:38.019Z,1010.85
2016-05-25T10:54:38.022Z,1010.9
2016-05-25T10:55:38.010Z,1010.91
2016-05-25T10:56:38.215Z,1010.9
2016-05-25T10:57:38.218Z,1010.88
2016-05-25T10:58:38.001Z,1010.9
2016-05-25T10:59:38.004Z,1010.86
2016-05-25T11:00:38.195Z,1010.83
2016-05-25T11:01:37.993Z,1010.84
2016-05-25T11:02:37.982Z,1010.83
2016-05-25T11:03:37.984Z,1010.82
2016-05-25T11:04:38.174Z,1010.83
2016-05-25T11:05:38.177Z,1010.81
2016-05-25T11:06:38.164Z,1010.83
2016-05-25T11:07:38.182Z,1010.82
2016-05-25T11:08:38.169Z,1010.86
2016-05-25T11:09:38.156Z,1010.84
2016-05-25T11:10:38.143Z,1010.83
2016-05-25T11:11:38.146Z,1010.82
2016-05-25T11:12:38.148Z,1010.85
2016-05-25T11:13:37.932Z,1010.81
2016-05-25T11:14:38.122Z,1010.84
2016-05-25T11:15:37.922Z,1010.88
2016-05-25T11:16:38.113Z,1010.86
2016-05-25T11:17:37.912Z,1010.86
2016-05-25T11:18:38.103Z,1010.86
2016-05-25T11:19:38.105Z,1010.85
2016-05-25T11:20:38.107Z,1010.86
2016-05-25T11:21:38.095Z,1010.87
2016-05-25T11:22:38.097Z,1010.83
2016-05-25T11:23:38.116Z,1010.88
2016-05-25T11:24:37.884Z,1010.84
2016-05-25T11:25:38.075Z,1010.86
2016-05-25T11:26:37.874Z,1010.84
2016-05-25T11:27:37.860Z,1010.87
2016-05-25T11:28:38.066Z,1010.84
2016-05-25T11:29:38.054Z,1010.83
2016-05-25T11:30:38.056Z,1010.83
2016-05-25T11:31:37.840Z,1010.84
2016-05-25T11:32:38.046Z,1010.82
2016-05-25T11:33:38.034Z,1010.84
2016-05-25T11:34:37.833Z,1010.82
2016-05-25T11:35:38.039Z,1010.83
2016-05-25T11:36:38.025Z,1010.8
2016-05-25T11:37:37.826Z,1010.82
2016-05-25T11:38:37.812Z,1010.83
2016-05-25T11:39:38.018Z,1010.85
2016-05-25T11:40:38.021Z,1010.83
2016-05-25T11:41:37.805Z,1010.86
2016-05-25T11:42:37.995Z,1010.85
2016-05-25T11:43:37.794Z,1010.86
2016-05-25T11:44:37.797Z,1010.84
2016-05-25T11:45:37.987Z,1010.88
2016-05-25T11:46:37.975Z,1010.83
2016-05-25T11:47:37.993Z,1010.85
2016-05-25T11:48:37.980Z,1010.86
2016-05-25T11:49:37.967Z,1010.87
2016-05-25T11:50:37.750Z,1010.88
2016-05-25T11:51:37.957Z,1010.83
2016-05-25T11:52:37.960Z,1010.8
2016-05-25T11:53:37.946Z,1010.83
2016-05-25T11:54:37.949Z,1010.81
2016-05-25T11:55:37.936Z,1010.8
2016-05-25T11:56:37.735Z,1010.81
2016-05-25T11:57:37.941Z,1010.82
2016-05-25T11:58:37.929Z,1010.83
2016-05-25T11:59:37.729Z,1010.8
2016-05-25T12:00:37.918Z,1010.83
2016-05-25T12:01:37.718Z,1010.83
2016-05-25T12:02:37.908Z,1010.78
2016-05-25T12:03:37.911Z,1010.8
2016-05-25T12:04:37.913Z,1010.77
2016-05-25T12:05:37.697Z,1010.8
2016-05-25T12:06:37.903Z,1010.79
2016-05-25T12:07:37.687Z,1010.78
2016-05-25T12:08:37.878Z,1010.77